sensor_id;sensor_type;location;lat;lon;timestamp;P1;durP1;ratioP1;P2;durP2;ratioP2
65035;SDS011;51603;49.300;8.880;2024-03-07T00:00:07;57.93;;;43.67;;
65035;SDS011;51603;49.300;8.880;2024-03-07T00:02:44;51.47;;;38.97;;
65035;SDS011;51603;49.300;8.880;2024-03-07T00:05:11;52.20;;;34.83;;
65035;SDS011;51603;49.300;8.880;2024-03-07T00:07:40;49.93;;;34.90;;
65035;SDS011;51603;49.300;8.880;2024-03-07T00:10:06;46.10;;;33.47;;
65035;SDS011;51603;49.300;8.880;2024-03-07T00:12:33;44.13;;;32.80;;
65035;SDS011;51603;49.300;8.880;2024-03-07T00:15:00;42.83;;;31.30;;
65035;SDS011;51603;49.300;8.880;2024-03-07T00:17:26;48.93;;;33.40;;
65035;SDS011;51603;49.300;8.880;2024-03-07T00:19:51;40.67;;;30.93;;
65035;SDS011;51603;49.300;8.880;2024-03-07T00:22:17;43.40;;;32.43;;
65035;SDS011;51603;49.300;8.880;2024-03-07T00:24:43;43.70;;;30.47;;
65035;SDS011;51603;49.300;8.880;2024-03-07T00:27:12;38.77;;;29.20;;
65035;SDS011;51603;49.300;8.880;2024-03-07T00:29:39;43.53;;;31.00;;
65035;SDS011;51603;49.300;8.880;2024-03-07T00:32:05;45.03;;;32.80;;
65035;SDS011;51603;49.300;8.880;2024-03-07T00:34:30;51.73;;;32.77;;
65035;SDS011;51603;49.300;8.880;2024-03-07T00:36:57;50.77;;;35.83;;
65035;SDS011;51603;49.300;8.880;2024-03-07T00:39:24;53.17;;;35.10;;
65035;SDS011;51603;49.300;8.880;2024-03-07T00:41:49;47.70;;;33.73;;
65035;SDS011;51603;49.300;8.880;2024-03-07T00:44:15;42.57;;;32.07;;
65035;SDS011;51603;49.300;8.880;2024-03-07T00:46:41;53.13;;;37.00;;
65035;SDS011;51603;49.300;8.880;2024-03-07T00:49:06;47.20;;;32.93;;
65035;SDS011;51603;49.300;8.880;2024-03-07T00:51:32;51.50;;;36.30;;
65035;SDS011;51603;49.300;8.880;2024-03-07T00:53:57;45.73;;;32.33;;
65035;SDS011;51603;49.300;8.880;2024-03-07T00:56:23;48.73;;;34.60;;
65035;SDS011;51603;49.300;8.880;2024-03-07T00:58:48;49.33;;;34.83;;
65035;SDS011;51603;49.300;8.880;2024-03-07T01:01:15;46.00;;;35.93;;
65035;SDS011;51603;49.300;8.880;2024-03-07T01:03:41;47.43;;;34.83;;
65035;SDS011;51603;49.300;8.880;2024-03-07T01:06:06;47.53;;;35.30;;
65035;SDS011;51603;49.300;8.880;2024-03-07T01:08:34;47.80;;;34.30;;
65035;SDS011;51603;49.300;8.880;2024-03-07T01:11:01;49.37;;;35.60;;
65035;SDS011;51603;49.300;8.880;2024-03-07T01:13:34;48.57;;;35.63;;
65035;SDS011;51603;49.300;8.880;2024-03-07T01:16:06;48.70;;;37.50;;
65035;SDS011;51603;49.300;8.880;2024-03-07T01:18:31;49.73;;;36.60;;
65035;SDS011;51603;49.300;8.880;2024-03-07T01:21:03;45.33;;;34.17;;
65035;SDS011;51603;49.300;8.880;2024-03-07T01:23:30;46.57;;;34.57;;
65035;SDS011;51603;49.300;8.880;2024-03-07T01:25:58;45.50;;;32.80;;
65035;SDS011;51603;49.300;8.880;2024-03-07T01:28:26;52.03;;;37.30;;
65035;SDS011;51603;49.300;8.880;2024-03-07T01:30:55;49.20;;;35.77;;
65035;SDS011;51603;49.300;8.880;2024-03-07T01:33:22;48.00;;;34.77;;
65035;SDS011;51603;49.300;8.880;2024-03-07T01:35:47;46.00;;;32.90;;
65035;SDS011;51603;49.300;8.880;2024-03-07T01:38:14;49.87;;;34.43;;
65035;SDS011;51603;49.300;8.880;2024-03-07T01:40:40;47.13;;;33.40;;
65035;SDS011;51603;49.300;8.880;2024-03-07T01:43:06;45.07;;;31.80;;
65035;SDS011;51603;49.300;8.880;2024-03-07T01:45:32;43.60;;;33.07;;
65035;SDS011;51603;49.300;8.880;2024-03-07T01:47:57;36.77;;;29.57;;
65035;SDS011;51603;49.300;8.880;2024-03-07T01:50:24;45.00;;;32.30;;
65035;SDS011;51603;49.300;8.880;2024-03-07T01:52:49;46.20;;;34.07;;
65035;SDS011;51603;49.300;8.880;2024-03-07T01:55:16;44.00;;;34.03;;
65035;SDS011;51603;49.300;8.880;2024-03-07T01:57:43;44.80;;;33.57;;
65035;SDS011;51603;49.300;8.880;2024-03-07T02:00:09;48.73;;;35.30;;
65035;SDS011;51603;49.300;8.880;2024-03-07T02:02:35;45.33;;;35.60;;
65035;SDS011;51603;49.300;8.880;2024-03-07T02:05:01;48.00;;;35.60;;
65035;SDS011;51603;49.300;8.880;2024-03-07T02:07:27;49.07;;;35.57;;
65035;SDS011;51603;49.300;8.880;2024-03-07T02:10:02;45.07;;;33.57;;
65035;SDS011;51603;49.300;8.880;2024-03-07T02:12:29;46.30;;;35.30;;
65035;SDS011;51603;49.300;8.880;2024-03-07T02:14:56;43.70;;;34.67;;
65035;SDS011;51603;49.300;8.880;2024-03-07T02:17:22;43.20;;;32.40;;
65035;SDS011;51603;49.300;8.880;2024-03-07T02:19:48;49.17;;;32.53;;
65035;SDS011;51603;49.300;8.880;2024-03-07T02:22:15;43.60;;;32.37;;
65035;SDS011;51603;49.300;8.880;2024-03-07T02:24:41;43.47;;;32.30;;
65035;SDS011;51603;49.300;8.880;2024-03-07T02:27:06;43.03;;;33.50;;
65035;SDS011;51603;49.300;8.880;2024-03-07T02:29:33;39.37;;;30.40;;
65035;SDS011;51603;49.300;8.880;2024-03-07T02:31:59;39.60;;;32.00;;
65035;SDS011;51603;49.300;8.880;2024-03-07T02:34:24;38.47;;;29.33;;
65035;SDS011;51603;49.300;8.880;2024-03-07T02:36:52;40.40;;;29.10;;
65035;SDS011;51603;49.300;8.880;2024-03-07T02:39:17;41.20;;;31.10;;
65035;SDS011;51603;49.300;8.880;2024-03-07T02:41:43;44.43;;;32.63;;
65035;SDS011;51603;49.300;8.880;2024-03-07T02:44:08;47.40;;;35.77;;
65035;SDS011;51603;49.300;8.880;2024-03-07T02:46:34;42.23;;;32.53;;
65035;SDS011;51603;49.300;8.880;2024-03-07T02:48:59;46.07;;;34.47;;
65035;SDS011;51603;49.300;8.880;2024-03-07T02:51:25;44.70;;;33.07;;
65035;SDS011;51603;49.300;8.880;2024-03-07T02:53:50;44.77;;;31.10;;
65035;SDS011;51603;49.300;8.880;2024-03-07T02:56:16;45.37;;;34.13;;
65035;SDS011;51603;49.300;8.880;2024-03-07T02:58:41;41.27;;;31.53;;
65035;SDS011;51603;49.300;8.880;2024-03-07T03:01:07;49.90;;;34.63;;
65035;SDS011;51603;49.300;8.880;2024-03-07T03:03:32;42.73;;;32.93;;
65035;SDS011;51603;49.300;8.880;2024-03-07T03:05:58;41.93;;;31.53;;
65035;SDS011;51603;49.300;8.880;2024-03-07T03:08:27;51.10;;;32.90;;
65035;SDS011;51603;49.300;8.880;2024-03-07T03:10:55;46.43;;;32.33;;
65035;SDS011;51603;49.300;8.880;2024-03-07T03:13:21;44.67;;;33.17;;
65035;SDS011;51603;49.300;8.880;2024-03-07T03:15:48;40.60;;;31.87;;
65035;SDS011;51603;49.300;8.880;2024-03-07T03:18:14;45.47;;;32.50;;
65035;SDS011;51603;49.300;8.880;2024-03-07T03:20:39;47.30;;;33.63;;
65035;SDS011;51603;49.300;8.880;2024-03-07T03:23:06;45.90;;;33.30;;
65035;SDS011;51603;49.300;8.880;2024-03-07T03:25:36;45.87;;;33.27;;
65035;SDS011;51603;49.300;8.880;2024-03-07T03:28:03;50.03;;;34.13;;
65035;SDS011;51603;49.300;8.880;2024-03-07T03:30:29;44.30;;;34.47;;
65035;SDS011;51603;49.300;8.880;2024-03-07T03:32:55;49.90;;;35.90;;
65035;SDS011;51603;49.300;8.880;2024-03-07T03:35:20;43.87;;;30.87;;
65035;SDS011;51603;49.300;8.880;2024-03-07T03:37:46;44.20;;;33.87;;
65035;SDS011;51603;49.300;8.880;2024-03-07T03:40:12;48.77;;;34.27;;
65035;SDS011;51603;49.300;8.880;2024-03-07T03:42:42;50.37;;;33.73;;
65035;SDS011;51603;49.300;8.880;2024-03-07T03:45:09;44.03;;;31.93;;
65035;SDS011;51603;49.300;8.880;2024-03-07T03:47:39;42.47;;;31.80;;
65035;SDS011;51603;49.300;8.880;2024-03-07T03:50:07;46.63;;;31.40;;
65035;SDS011;51603;49.300;8.880;2024-03-07T03:52:33;48.40;;;33.53;;
65035;SDS011;51603;49.300;8.880;2024-03-07T03:55:02;47.20;;;35.47;;
65035;SDS011;51603;49.300;8.880;2024-03-07T03:57:30;44.57;;;33.80;;
65035;SDS011;51603;49.300;8.880;2024-03-07T03:59:57;47.13;;;35.30;;
65035;SDS011;51603;49.300;8.880;2024-03-07T04:02:23;52.53;;;40.80;;
65035;SDS011;51603;49.300;8.880;2024-03-07T04:04:49;49.80;;;37.70;;
65035;SDS011;51603;49.300;8.880;2024-03-07T04:07:16;48.33;;;39.23;;
65035;SDS011;51603;49.300;8.880;2024-03-07T04:09:42;54.17;;;39.20;;
65035;SDS011;51603;49.300;8.880;2024-03-07T04:12:08;51.87;;;41.53;;
65035;SDS011;51603;49.300;8.880;2024-03-07T04:14:39;53.43;;;36.67;;
65035;SDS011;51603;49.300;8.880;2024-03-07T04:17:06;48.90;;;38.10;;
65035;SDS011;51603;49.300;8.880;2024-03-07T04:19:35;53.57;;;39.10;;
65035;SDS011;51603;49.300;8.880;2024-03-07T04:22:01;52.22;;;39.20;;
65035;SDS011;51603;49.300;8.880;2024-03-07T04:24:32;57.30;;;40.58;;
65035;SDS011;51603;49.300;8.880;2024-03-07T04:27:02;54.77;;;38.23;;
65035;SDS011;51603;49.300;8.880;2024-03-07T04:29:34;50.97;;;39.00;;
65035;SDS011;51603;49.300;8.880;2024-03-07T04:32:00;43.60;;;32.40;;
65035;SDS011;51603;49.300;8.880;2024-03-07T04:34:26;47.37;;;35.83;;
65035;SDS011;51603;49.300;8.880;2024-03-07T04:36:53;51.40;;;35.00;;
65035;SDS011;51603;49.300;8.880;2024-03-07T04:39:18;40.07;;;30.73;;
65035;SDS011;51603;49.300;8.880;2024-03-07T04:41:55;39.93;;;30.80;;
65035;SDS011;51603;49.300;8.880;2024-03-07T04:44:21;46.50;;;32.37;;
65035;SDS011;51603;49.300;8.880;2024-03-07T04:46:47;41.57;;;31.80;;
65035;SDS011;51603;49.300;8.880;2024-03-07T04:49:14;46.23;;;32.33;;
65035;SDS011;51603;49.300;8.880;2024-03-07T04:51:40;45.57;;;30.70;;
65035;SDS011;51603;49.300;8.880;2024-03-07T04:54:06;45.53;;;33.90;;
65035;SDS011;51603;49.300;8.880;2024-03-07T04:56:31;51.77;;;36.27;;
65035;SDS011;51603;49.300;8.880;2024-03-07T04:58:57;53.37;;;37.77;;
65035;SDS011;51603;49.300;8.880;2024-03-07T05:01:23;56.17;;;38.70;;
65035;SDS011;51603;49.300;8.880;2024-03-07T05:03:50;53.80;;;36.67;;
65035;SDS011;51603;49.300;8.880;2024-03-07T05:06:17;51.33;;;37.20;;
65035;SDS011;51603;49.300;8.880;2024-03-07T05:08:43;48.67;;;34.80;;
65035;SDS011;51603;49.300;8.880;2024-03-07T05:11:09;42.90;;;31.90;;
65035;SDS011;51603;49.300;8.880;2024-03-07T05:13:35;51.10;;;33.33;;
65035;SDS011;51603;49.300;8.880;2024-03-07T05:16:02;47.20;;;33.72;;
65035;SDS011;51603;49.300;8.880;2024-03-07T05:18:27;45.53;;;35.40;;
65035;SDS011;51603;49.300;8.880;2024-03-07T05:20:53;45.43;;;33.63;;
65035;SDS011;51603;49.300;8.880;2024-03-07T05:23:19;47.50;;;34.33;;
65035;SDS011;51603;49.300;8.880;2024-03-07T05:25:45;47.10;;;34.63;;
65035;SDS011;51603;49.300;8.880;2024-03-07T05:28:11;47.23;;;34.80;;
65035;SDS011;51603;49.300;8.880;2024-03-07T05:30:37;45.37;;;34.27;;
65035;SDS011;51603;49.300;8.880;2024-03-07T05:33:02;49.93;;;36.07;;
65035;SDS011;51603;49.300;8.880;2024-03-07T05:35:28;50.10;;;37.57;;
65035;SDS011;51603;49.300;8.880;2024-03-07T05:37:54;50.95;;;38.30;;
65035;SDS011;51603;49.300;8.880;2024-03-07T05:40:21;50.53;;;36.37;;
65035;SDS011;51603;49.300;8.880;2024-03-07T05:42:47;47.63;;;36.63;;
65035;SDS011;51603;49.300;8.880;2024-03-07T05:45:13;47.70;;;35.70;;
65035;SDS011;51603;49.300;8.880;2024-03-07T05:47:39;49.97;;;35.70;;
65035;SDS011;51603;49.300;8.880;2024-03-07T05:50:06;47.37;;;35.40;;
65035;SDS011;51603;49.300;8.880;2024-03-07T05:52:35;52.13;;;36.07;;
65035;SDS011;51603;49.300;8.880;2024-03-07T05:55:01;52.13;;;38.57;;
65035;SDS011;51603;49.300;8.880;2024-03-07T05:57:28;52.80;;;37.57;;
65035;SDS011;51603;49.300;8.880;2024-03-07T05:59:56;48.27;;;35.07;;
65035;SDS011;51603;49.300;8.880;2024-03-07T06:02:22;47.43;;;35.73;;
65035;SDS011;51603;49.300;8.880;2024-03-07T06:04:48;48.75;;;33.88;;
65035;SDS011;51603;49.300;8.880;2024-03-07T06:07:16;44.63;;;31.37;;
65035;SDS011;51603;49.300;8.880;2024-03-07T06:09:42;43.43;;;31.97;;
65035;SDS011;51603;49.300;8.880;2024-03-07T06:12:08;46.47;;;33.20;;
65035;SDS011;51603;49.300;8.880;2024-03-07T06:14:34;50.43;;;31.83;;
65035;SDS011;51603;49.300;8.880;2024-03-07T06:16:59;47.57;;;30.93;;
65035;SDS011;51603;49.300;8.880;2024-03-07T06:19:26;38.47;;;29.30;;
65035;SDS011;51603;49.300;8.880;2024-03-07T06:21:56;46.65;;;31.77;;
65035;SDS011;51603;49.300;8.880;2024-03-07T06:24:21;43.20;;;31.87;;
65035;SDS011;51603;49.300;8.880;2024-03-07T06:26:48;45.53;;;31.30;;
65035;SDS011;51603;49.300;8.880;2024-03-07T06:29:25;45.95;;;31.95;;
65035;SDS011;51603;49.300;8.880;2024-03-07T06:31:52;46.30;;;32.35;;
65035;SDS011;51603;49.300;8.880;2024-03-07T06:34:19;44.78;;;33.85;;
65035;SDS011;51603;49.300;8.880;2024-03-07T06:36:44;43.30;;;31.97;;
65035;SDS011;51603;49.300;8.880;2024-03-07T06:39:10;41.20;;;30.10;;
65035;SDS011;51603;49.300;8.880;2024-03-07T06:41:36;45.97;;;29.90;;
65035;SDS011;51603;49.300;8.880;2024-03-07T06:44:02;43.97;;;29.83;;
65035;SDS011;51603;49.300;8.880;2024-03-07T06:46:28;41.83;;;29.23;;
65035;SDS011;51603;49.300;8.880;2024-03-07T06:48:53;43.40;;;30.63;;
65035;SDS011;51603;49.300;8.880;2024-03-07T06:51:20;43.47;;;30.60;;
65035;SDS011;51603;49.300;8.880;2024-03-07T06:53:47;38.97;;;28.13;;
65035;SDS011;51603;49.300;8.880;2024-03-07T06:56:13;39.30;;;29.50;;
65035;SDS011;51603;49.300;8.880;2024-03-07T06:58:39;42.70;;;29.67;;
65035;SDS011;51603;49.300;8.880;2024-03-07T07:01:05;44.33;;;30.07;;
65035;SDS011;51603;49.300;8.880;2024-03-07T07:03:34;37.97;;;28.77;;
65035;SDS011;51603;49.300;8.880;2024-03-07T07:06:01;43.30;;;32.07;;
65035;SDS011;51603;49.300;8.880;2024-03-07T07:08:26;39.63;;;27.93;;
65035;SDS011;51603;49.300;8.880;2024-03-07T07:10:54;40.97;;;30.50;;
65035;SDS011;51603;49.300;8.880;2024-03-07T07:13:20;40.97;;;29.60;;
65035;SDS011;51603;49.300;8.880;2024-03-07T07:15:46;50.00;;;32.20;;
65035;SDS011;51603;49.300;8.880;2024-03-07T07:18:12;42.73;;;30.70;;
65035;SDS011;51603;49.300;8.880;2024-03-07T07:20:38;37.80;;;28.10;;
65035;SDS011;51603;49.300;8.880;2024-03-07T07:23:04;42.50;;;29.80;;
65035;SDS011;51603;49.300;8.880;2024-03-07T07:25:30;44.83;;;30.93;;
65035;SDS011;51603;49.300;8.880;2024-03-07T07:27:55;50.73;;;32.80;;
65035;SDS011;51603;49.300;8.880;2024-03-07T07:30:22;42.90;;;29.83;;
65035;SDS011;51603;49.300;8.880;2024-03-07T07:32:50;45.70;;;33.00;;
65035;SDS011;51603;49.300;8.880;2024-03-07T07:35:17;43.07;;;30.00;;
65035;SDS011;51603;49.300;8.880;2024-03-07T07:37:43;47.73;;;33.63;;
65035;SDS011;51603;49.300;8.880;2024-03-07T07:40:13;44.00;;;30.90;;
65035;SDS011;51603;49.300;8.880;2024-03-07T07:42:44;46.53;;;32.70;;
65035;SDS011;51603;49.300;8.880;2024-03-07T07:45:12;47.20;;;33.47;;
65035;SDS011;51603;49.300;8.880;2024-03-07T07:47:39;48.07;;;31.43;;
65035;SDS011;51603;49.300;8.880;2024-03-07T07:50:07;45.20;;;31.70;;
65035;SDS011;51603;49.300;8.880;2024-03-07T07:52:40;43.30;;;31.50;;
65035;SDS011;51603;49.300;8.880;2024-03-07T07:55:11;46.77;;;32.07;;
65035;SDS011;51603;49.300;8.880;2024-03-07T07:57:45;50.27;;;34.00;;
65035;SDS011;51603;49.300;8.880;2024-03-07T08:00:17;49.43;;;33.90;;
65035;SDS011;51603;49.300;8.880;2024-03-07T08:02:52;46.70;;;32.90;;
65035;SDS011;51603;49.300;8.880;2024-03-07T08:05:52;41.27;;;29.97;;
65035;SDS011;51603;49.300;8.880;2024-03-07T08:08:11;37.53;;;28.20;;
65035;SDS011;51603;49.300;8.880;2024-03-07T08:10:38;39.80;;;29.97;;
65035;SDS011;51603;49.300;8.880;2024-03-07T08:13:06;43.17;;;31.63;;
65035;SDS011;51603;49.300;8.880;2024-03-07T08:15:31;41.40;;;29.43;;
65035;SDS011;51603;49.300;8.880;2024-03-07T08:17:57;43.47;;;29.10;;
65035;SDS011;51603;49.300;8.880;2024-03-07T08:20:24;54.23;;;40.60;;
65035;SDS011;51603;49.300;8.880;2024-03-07T08:22:51;53.00;;;40.07;;
65035;SDS011;51603;49.300;8.880;2024-03-07T08:25:18;38.80;;;29.23;;
65035;SDS011;51603;49.300;8.880;2024-03-07T08:27:45;44.00;;;31.93;;
65035;SDS011;51603;49.300;8.880;2024-03-07T08:30:13;43.40;;;33.77;;
65035;SDS011;51603;49.300;8.880;2024-03-07T08:35:06;36.80;;;28.50;;
65035;SDS011;51603;49.300;8.880;2024-03-07T08:37:40;36.73;;;27.33;;
65035;SDS011;51603;49.300;8.880;2024-03-07T08:40:18;31.63;;;26.20;;
65035;SDS011;51603;49.300;8.880;2024-03-07T08:42:49;33.50;;;25.47;;
65035;SDS011;51603;49.300;8.880;2024-03-07T08:45:16;34.43;;;27.37;;
65035;SDS011;51603;49.300;8.880;2024-03-07T08:47:44;31.00;;;24.87;;
65035;SDS011;51603;49.300;8.880;2024-03-07T08:50:11;31.07;;;23.70;;
65035;SDS011;51603;49.300;8.880;2024-03-07T08:52:38;27.50;;;22.73;;
65035;SDS011;51603;49.300;8.880;2024-03-07T08:55:05;32.07;;;25.10;;
65035;SDS011;51603;49.300;8.880;2024-03-07T08:57:34;30.83;;;22.37;;
65035;SDS011;51603;49.300;8.880;2024-03-07T09:00:01;25.93;;;21.67;;
65035;SDS011;51603;49.300;8.880;2024-03-07T09:02:33;29.87;;;23.40;;
65035;SDS011;51603;49.300;8.880;2024-03-07T09:05:03;31.03;;;21.30;;
65035;SDS011;51603;49.300;8.880;2024-03-07T09:07:29;25.60;;;21.60;;
65035;SDS011;51603;49.300;8.880;2024-03-07T09:09:54;28.13;;;23.77;;
65035;SDS011;51603;49.300;8.880;2024-03-07T09:12:20;27.30;;;20.87;;
65035;SDS011;51603;49.300;8.880;2024-03-07T09:14:46;26.47;;;22.33;;
65035;SDS011;51603;49.300;8.880;2024-03-07T09:17:12;25.77;;;21.23;;
65035;SDS011;51603;49.300;8.880;2024-03-07T09:19:37;25.30;;;21.67;;
65035;SDS011;51603;49.300;8.880;2024-03-07T09:22:03;28.20;;;20.60;;
65035;SDS011;51603;49.300;8.880;2024-03-07T09:24:30;26.27;;;22.77;;
65035;SDS011;51603;49.300;8.880;2024-03-07T09:26:56;28.43;;;23.30;;
65035;SDS011;51603;49.300;8.880;2024-03-07T09:29:22;28.37;;;21.00;;
65035;SDS011;51603;49.300;8.880;2024-03-07T09:31:51;27.20;;;20.60;;
65035;SDS011;51603;49.300;8.880;2024-03-07T09:34:18;26.10;;;22.20;;
65035;SDS011;51603;49.300;8.880;2024-03-07T09:36:45;25.40;;;21.47;;
65035;SDS011;51603;49.300;8.880;2024-03-07T09:39:11;27.37;;;22.13;;
65035;SDS011;51603;49.300;8.880;2024-03-07T09:41:37;27.27;;;21.03;;
65035;SDS011;51603;49.300;8.880;2024-03-07T09:44:04;25.50;;;21.33;;
65035;SDS011;51603;49.300;8.880;2024-03-07T09:46:32;24.20;;;21.70;;
65035;SDS011;51603;49.300;8.880;2024-03-07T09:48:59;25.33;;;21.70;;
65035;SDS011;51603;49.300;8.880;2024-03-07T09:51:25;24.97;;;21.00;;
65035;SDS011;51603;49.300;8.880;2024-03-07T09:53:53;24.13;;;21.07;;
65035;SDS011;51603;49.300;8.880;2024-03-07T09:56:22;27.83;;;20.83;;
65035;SDS011;51603;49.300;8.880;2024-03-07T09:58:49;64.63;;;54.70;;
65035;SDS011;51603;49.300;8.880;2024-03-07T10:01:18;24.77;;;22.07;;
65035;SDS011;51603;49.300;8.880;2024-03-07T10:03:46;26.00;;;22.37;;
65035;SDS011;51603;49.300;8.880;2024-03-07T10:06:12;28.53;;;22.93;;
65035;SDS011;51603;49.300;8.880;2024-03-07T10:08:39;25.17;;;22.47;;
65035;SDS011;51603;49.300;8.880;2024-03-07T10:11:07;27.57;;;22.93;;
65035;SDS011;51603;49.300;8.880;2024-03-07T10:13:34;27.10;;;22.40;;
65035;SDS011;51603;49.300;8.880;2024-03-07T10:16:00;26.47;;;23.00;;
65035;SDS011;51603;49.300;8.880;2024-03-07T10:18:26;24.30;;;21.77;;
65035;SDS011;51603;49.300;8.880;2024-03-07T10:20:55;24.80;;;21.73;;
65035;SDS011;51603;49.300;8.880;2024-03-07T10:23:24;28.37;;;21.60;;
65035;SDS011;51603;49.300;8.880;2024-03-07T10:25:50;28.03;;;23.10;;
65035;SDS011;51603;49.300;8.880;2024-03-07T10:28:18;26.53;;;21.83;;
65035;SDS011;51603;49.300;8.880;2024-03-07T10:30:46;28.30;;;22.80;;
65035;SDS011;51603;49.300;8.880;2024-03-07T10:33:12;27.60;;;21.77;;
65035;SDS011;51603;49.300;8.880;2024-03-07T10:35:38;27.23;;;21.63;;
65035;SDS011;51603;49.300;8.880;2024-03-07T10:38:04;28.07;;;21.43;;
65035;SDS011;51603;49.300;8.880;2024-03-07T10:40:36;26.30;;;22.03;;
65035;SDS011;51603;49.300;8.880;2024-03-07T10:43:05;24.30;;;21.70;;
65035;SDS011;51603;49.300;8.880;2024-03-07T10:45:35;28.63;;;22.23;;
65035;SDS011;51603;49.300;8.880;2024-03-07T10:48:10;22.40;;;19.83;;
65035;SDS011;51603;49.300;8.880;2024-03-07T10:53:29;26.40;;;21.60;;
65035;SDS011;51603;49.300;8.880;2024-03-07T10:59:22;26.27;;;22.77;;
65035;SDS011;51603;49.300;8.880;2024-03-07T11:01:25;25.67;;;21.90;;
65035;SDS011;51603;49.300;8.880;2024-03-07T11:03:54;24.47;;;20.90;;
65035;SDS011;51603;49.300;8.880;2024-03-07T11:06:22;27.70;;;22.63;;
65035;SDS011;51603;49.300;8.880;2024-03-07T11:08:49;24.50;;;21.43;;
65035;SDS011;51603;49.300;8.880;2024-03-07T11:11:14;24.37;;;21.63;;
65035;SDS011;51603;49.300;8.880;2024-03-07T11:13:40;25.90;;;21.40;;
65035;SDS011;51603;49.300;8.880;2024-03-07T11:16:07;24.47;;;21.87;;
65035;SDS011;51603;49.300;8.880;2024-03-07T11:18:34;28.50;;;24.03;;
65035;SDS011;51603;49.300;8.880;2024-03-07T11:21:00;27.20;;;21.87;;
65035;SDS011;51603;49.300;8.880;2024-03-07T11:26:07;26.40;;;22.67;;
65035;SDS011;51603;49.300;8.880;2024-03-07T11:28:37;27.40;;;22.57;;
65035;SDS011;51603;49.300;8.880;2024-03-07T11:31:13;24.50;;;21.47;;
65035;SDS011;51603;49.300;8.880;2024-03-07T11:33:40;25.00;;;22.40;;
65035;SDS011;51603;49.300;8.880;2024-03-07T11:36:10;25.60;;;20.50;;
65035;SDS011;51603;49.300;8.880;2024-03-07T11:38:47;25.77;;;21.23;;
65035;SDS011;51603;49.300;8.880;2024-03-07T11:41:13;23.93;;;20.70;;
65035;SDS011;51603;49.300;8.880;2024-03-07T11:43:40;26.40;;;22.70;;
65035;SDS011;51603;49.300;8.880;2024-03-07T11:46:07;24.43;;;21.20;;
65035;SDS011;51603;49.300;8.880;2024-03-07T11:48:38;23.60;;;20.50;;
65035;SDS011;51603;49.300;8.880;2024-03-07T11:51:06;25.23;;;21.23;;
65035;SDS011;51603;49.300;8.880;2024-03-07T11:53:35;24.33;;;21.47;;
65035;SDS011;51603;49.300;8.880;2024-03-07T11:56:03;24.60;;;21.33;;
65035;SDS011;51603;49.300;8.880;2024-03-07T11:58:37;21.47;;;19.20;;
65035;SDS011;51603;49.300;8.880;2024-03-07T12:01:05;24.00;;;21.30;;
65035;SDS011;51603;49.300;8.880;2024-03-07T12:03:35;22.77;;;20.30;;
65035;SDS011;51603;49.300;8.880;2024-03-07T12:06:02;21.00;;;17.87;;
65035;SDS011;51603;49.300;8.880;2024-03-07T12:08:28;21.37;;;18.93;;
65035;SDS011;51603;49.300;8.880;2024-03-07T12:10:54;21.30;;;18.90;;
65035;SDS011;51603;49.300;8.880;2024-03-07T12:13:21;20.00;;;17.80;;
65035;SDS011;51603;49.300;8.880;2024-03-07T12:15:47;21.67;;;18.57;;
65035;SDS011;51603;49.300;8.880;2024-03-07T12:18:16;23.17;;;18.47;;
65035;SDS011;51603;49.300;8.880;2024-03-07T12:20:43;21.50;;;17.37;;
65035;SDS011;51603;49.300;8.880;2024-03-07T12:23:18;20.33;;;18.20;;
65035;SDS011;51603;49.300;8.880;2024-03-07T12:25:44;20.17;;;16.73;;
65035;SDS011;51603;49.300;8.880;2024-03-07T12:28:13;19.23;;;17.17;;
65035;SDS011;51603;49.300;8.880;2024-03-07T12:33:10;20.70;;;16.97;;
65035;SDS011;51603;49.300;8.880;2024-03-07T12:35:38;17.03;;;15.20;;
65035;SDS011;51603;49.300;8.880;2024-03-07T12:38:07;17.80;;;15.27;;
65035;SDS011;51603;49.300;8.880;2024-03-07T12:40:35;17.40;;;14.90;;
65035;SDS011;51603;49.300;8.880;2024-03-07T12:43:02;19.80;;;16.10;;
65035;SDS011;51603;49.300;8.880;2024-03-07T12:45:37;16.93;;;14.83;;
65035;SDS011;51603;49.300;8.880;2024-03-07T12:48:15;18.30;;;16.43;;
65035;SDS011;51603;49.300;8.880;2024-03-07T12:50:41;19.50;;;16.50;;
65035;SDS011;51603;49.300;8.880;2024-03-07T12:53:07;19.47;;;17.03;;
65035;SDS011;51603;49.300;8.880;2024-03-07T12:55:37;18.13;;;16.33;;
65035;SDS011;51603;49.300;8.880;2024-03-07T12:58:08;17.17;;;15.37;;
65035;SDS011;51603;49.300;8.880;2024-03-07T13:00:36;18.23;;;16.13;;
65035;SDS011;51603;49.300;8.880;2024-03-07T13:03:02;18.27;;;16.33;;
65035;SDS011;51603;49.300;8.880;2024-03-07T13:05:29;19.97;;;15.87;;
65035;SDS011;51603;49.300;8.880;2024-03-07T13:07:55;15.53;;;13.67;;
65035;SDS011;51603;49.300;8.880;2024-03-07T13:10:20;18.47;;;15.90;;
65035;SDS011;51603;49.300;8.880;2024-03-07T13:12:46;19.90;;;16.17;;
65035;SDS011;51603;49.300;8.880;2024-03-07T13:15:13;17.83;;;15.67;;
65035;SDS011;51603;49.300;8.880;2024-03-07T13:17:39;18.03;;;16.03;;
65035;SDS011;51603;49.300;8.880;2024-03-07T13:20:08;18.70;;;15.90;;
65035;SDS011;51603;49.300;8.880;2024-03-07T13:22:40;18.13;;;16.27;;
65035;SDS011;51603;49.300;8.880;2024-03-07T13:25:13;16.73;;;14.87;;
65035;SDS011;51603;49.300;8.880;2024-03-07T13:27:43;19.60;;;15.90;;
65035;SDS011;51603;49.300;8.880;2024-03-07T13:30:16;18.53;;;16.60;;
65035;SDS011;51603;49.300;8.880;2024-03-07T13:32:47;17.93;;;15.53;;
65035;SDS011;51603;49.300;8.880;2024-03-07T13:35:14;18.57;;;15.30;;
65035;SDS011;51603;49.300;8.880;2024-03-07T13:37:40;19.60;;;16.10;;
65035;SDS011;51603;49.300;8.880;2024-03-07T13:40:06;18.27;;;16.23;;
65035;SDS011;51603;49.300;8.880;2024-03-07T13:42:47;19.83;;;16.43;;
65035;SDS011;51603;49.300;8.880;2024-03-07T13:45:20;17.40;;;14.77;;
65035;SDS011;51603;49.300;8.880;2024-03-07T13:47:47;19.20;;;16.10;;
65035;SDS011;51603;49.300;8.880;2024-03-07T13:50:17;20.67;;;15.90;;
65035;SDS011;51603;49.300;8.880;2024-03-07T13:52:56;18.83;;;16.37;;
65035;SDS011;51603;49.300;8.880;2024-03-07T14:22:02;18.03;;;16.07;;
65035;SDS011;51603;49.300;8.880;2024-03-07T14:27:41;17.13;;;14.87;;
65035;SDS011;51603;49.300;8.880;2024-03-07T14:30:39;20.20;;;16.07;;
65035;SDS011;51603;49.300;8.880;2024-03-07T14:33:18;20.73;;;15.13;;
65035;SDS011;51603;49.300;8.880;2024-03-07T14:38:52;19.10;;;15.93;;
65035;SDS011;51603;49.300;8.880;2024-03-07T14:44:23;17.23;;;15.30;;
65035;SDS011;51603;49.300;8.880;2024-03-07T14:46:52;18.90;;;15.53;;
65035;SDS011;51603;49.300;8.880;2024-03-07T14:49:22;19.80;;;16.87;;
65035;SDS011;51603;49.300;8.880;2024-03-07T14:51:48;20.00;;;15.53;;
65035;SDS011;51603;49.300;8.880;2024-03-07T14:54:15;15.83;;;14.20;;
65035;SDS011;51603;49.300;8.880;2024-03-07T14:56:41;18.30;;;16.40;;
65035;SDS011;51603;49.300;8.880;2024-03-07T14:59:06;21.13;;;15.10;;
65035;SDS011;51603;49.300;8.880;2024-03-07T15:01:32;17.37;;;14.60;;
65035;SDS011;51603;49.300;8.880;2024-03-07T15:04:01;15.43;;;13.83;;
65035;SDS011;51603;49.300;8.880;2024-03-07T15:06:31;16.67;;;14.00;;
65035;SDS011;51603;49.300;8.880;2024-03-07T15:09:02;18.10;;;14.77;;
65035;SDS011;51603;49.300;8.880;2024-03-07T15:11:29;17.33;;;15.47;;